sensor_id;sensor_type;location;lat;lon;timestamp;temperature;humidity
14924;DHT22;7554;43.600;1.480;2023-01-06T00:01:08;7.70;1.00
14924;DHT22;7554;43.600;1.480;2023-01-06T00:03:36;7.70;1.00
14924;DHT22;7554;43.600;1.480;2023-01-06T00:06:05;7.70;1.00
14924;DHT22;7554;43.600;1.480;2023-01-06T00:08:33;7.70;1.00
14924;DHT22;7554;43.600;1.480;2023-01-06T00:11:04;7.60;1.00
14924;DHT22;7554;43.600;1.480;2023-01-06T00:13:32;7.60;1.00
14924;DHT22;7554;43.600;1.480;2023-01-06T00:16:05;7.50;1.00
14924;DHT22;7554;43.600;1.480;2023-01-06T00:18:32;7.50;1.00
14924;DHT22;7554;43.600;1.480;2023-01-06T00:21:01;7.50;1.00
14924;DHT22;7554;43.600;1.480;2023-01-06T00:23:28;7.50;1.00
14924;DHT22;7554;43.600;1.480;2023-01-06T00:25:56;7.50;1.00
14924;DHT22;7554;43.600;1.480;2023-01-06T00:28:23;7.40;1.00
14924;DHT22;7554;43.600;1.480;2023-01-06T00:30:51;7.40;1.00
14924;DHT22;7554;43.600;1.480;2023-01-06T00:33:20;7.40;1.00
14924;DHT22;7554;43.600;1.480;2023-01-06T00:35:47;7.40;1.00
14924;DHT22;7554;43.600;1.480;2023-01-06T00:38:15;7.30;1.00
14924;DHT22;7554;43.600;1.480;2023-01-06T00:40:42;7.30;1.00
14924;DHT22;7554;43.600;1.480;2023-01-06T00:43:10;7.30;1.00
14924;DHT22;7554;43.600;1.480;2023-01-06T00:45:37;7.30;1.00
14924;DHT22;7554;43.600;1.480;2023-01-06T00:48:06;7.20;1.00
14924;DHT22;7554;43.600;1.480;2023-01-06T00:50:35;7.20;1.00
14924;DHT22;7554;43.600;1.480;2023-01-06T00:53:02;7.20;1.00
14924;DHT22;7554;43.600;1.480;2023-01-06T00:55:30;7.20;1.00
14924;DHT22;7554;43.600;1.480;2023-01-06T00:57:57;7.20;1.00
14924;DHT22;7554;43.600;1.480;2023-01-06T01:00:24;7.10;1.00
14924;DHT22;7554;43.600;1.480;2023-01-06T01:02:52;7.10;1.00
14924;DHT22;7554;43.600;1.480;2023-01-06T01:05:19;7.10;1.00
14924;DHT22;7554;43.600;1.480;2023-01-06T01:07:48;7.00;1.00
14924;DHT22;7554;43.600;1.480;2023-01-06T01:10:16;7.00;1.00
14924;DHT22;7554;43.600;1.480;2023-01-06T01:12:43;7.00;1.00
14924;DHT22;7554;43.600;1.480;2023-01-06T01:15:11;7.00;1.00
14924;DHT22;7554;43.600;1.480;2023-01-06T01:17:38;7.00;1.00
14924;DHT22;7554;43.600;1.480;2023-01-06T01:20:07;7.00;1.00
14924;DHT22;7554;43.600;1.480;2023-01-06T01:22:34;7.00;1.00
14924;DHT22;7554;43.600;1.480;2023-01-06T01:25:04;7.00;1.00
14924;DHT22;7554;43.600;1.480;2023-01-06T01:27:31;7.10;1.00
14924;DHT22;7554;43.600;1.480;2023-01-06T01:29:59;7.10;1.00
14924;DHT22;7554;43.600;1.480;2023-01-06T01:32:26;7.10;1.00
14924;DHT22;7554;43.600;1.480;2023-01-06T01:34:54;7.10;1.00
14924;DHT22;7554;43.600;1.480;2023-01-06T01:37:21;7.10;1.00
14924;DHT22;7554;43.600;1.480;2023-01-06T01:39:49;7.00;1.00
14924;DHT22;7554;43.600;1.480;2023-01-06T01:42:19;7.00;1.00
14924;DHT22;7554;43.600;1.480;2023-01-06T01:44:58;7.10;1.00
14924;DHT22;7554;43.600;1.480;2023-01-06T01:47:37;7.00;1.00
14924;DHT22;7554;43.600;1.480;2023-01-06T01:50:10;7.10;1.00
14924;DHT22;7554;43.600;1.480;2023-01-06T01:52:39;7.10;1.00
14924;DHT22;7554;43.600;1.480;2023-01-06T01:55:08;7.10;1.00
14924;DHT22;7554;43.600;1.480;2023-01-06T01:57:40;7.00;1.00
14924;DHT22;7554;43.600;1.480;2023-01-06T02:00:10;7.00;1.00
14924;DHT22;7554;43.600;1.480;2023-01-06T02:02:38;7.00;1.00
14924;DHT22;7554;43.600;1.480;2023-01-06T02:05:06;7.00;1.00
14924;DHT22;7554;43.600;1.480;2023-01-06T02:07:34;7.10;1.00
14924;DHT22;7554;43.600;1.480;2023-01-06T02:10:08;7.10;1.00
14924;DHT22;7554;43.600;1.480;2023-01-06T02:12:39;7.20;1.00
14924;DHT22;7554;43.600;1.480;2023-01-06T02:15:20;7.20;1.00
14924;DHT22;7554;43.600;1.480;2023-01-06T02:21:04;7.30;1.00
14924;DHT22;7554;43.600;1.480;2023-01-06T02:32:52;7.30;1.00
14924;DHT22;7554;43.600;1.480;2023-01-06T02:35:33;7.40;1.00
14924;DHT22;7554;43.600;1.480;2023-01-06T02:38:11;7.40;1.00
14924;DHT22;7554;43.600;1.480;2023-01-06T02:40:49;7.40;1.00
14924;DHT22;7554;43.600;1.480;2023-01-06T02:43:25;7.40;1.00
14924;DHT22;7554;43.600;1.480;2023-01-06T02:46:06;7.40;1.00
14924;DHT22;7554;43.600;1.480;2023-01-06T02:48:42;7.40;1.00
14924;DHT22;7554;43.600;1.480;2023-01-06T02:51:14;7.40;1.00
14924;DHT22;7554;43.600;1.480;2023-01-06T02:54:02;7.50;1.00
14924;DHT22;7554;43.600;1.480;2023-01-06T02:56:35;7.50;1.00
14924;DHT22;7554;43.600;1.480;2023-01-06T02:59:08;7.50;1.00
14924;DHT22;7554;43.600;1.480;2023-01-06T03:01:40;7.40;1.00
14924;DHT22;7554;43.600;1.480;2023-01-06T03:04:12;7.50;1.00
14924;DHT22;7554;43.600;1.480;2023-01-06T03:06:42;7.50;1.00
14924;DHT22;7554;43.600;1.480;2023-01-06T03:09:13;7.50;1.00
14924;DHT22;7554;43.600;1.480;2023-01-06T03:11:43;7.50;1.00
14924;DHT22;7554;43.600;1.480;2023-01-06T03:14:16;7.50;1.00
14924;DHT22;7554;43.600;1.480;2023-01-06T03:16:45;7.50;1.00
14924;DHT22;7554;43.600;1.480;2023-01-06T03:19:14;7.50;1.00
14924;DHT22;7554;43.600;1.480;2023-01-06T03:21:43;7.50;1.00
14924;DHT22;7554;43.600;1.480;2023-01-06T03:24:12;7.50;1.00
14924;DHT22;7554;43.600;1.480;2023-01-06T03:26:42;7.60;1.00
14924;DHT22;7554;43.600;1.480;2023-01-06T03:29:12;7.60;1.00
14924;DHT22;7554;43.600;1.480;2023-01-06T03:31:51;7.60;1.00
14924;DHT22;7554;43.600;1.480;2023-01-06T03:37:24;7.60;1.00
14924;DHT22;7554;43.600;1.480;2023-01-06T03:39:58;7.70;1.00
14924;DHT22;7554;43.600;1.480;2023-01-06T03:42:34;7.70;1.00
14924;DHT22;7554;43.600;1.480;2023-01-06T03:45:40;7.70;1.00
14924;DHT22;7554;43.600;1.480;2023-01-06T03:48:15;7.70;1.00
14924;DHT22;7554;43.600;1.480;2023-01-06T03:50:48;7.60;1.00
14924;DHT22;7554;43.600;1.480;2023-01-06T03:53:24;7.60;1.00
14924;DHT22;7554;43.600;1.480;2023-01-06T03:55:56;7.70;1.00
14924;DHT22;7554;43.600;1.480;2023-01-06T03:58:26;7.60;1.00
14924;DHT22;7554;43.600;1.480;2023-01-06T04:00:56;7.60;1.00
14924;DHT22;7554;43.600;1.480;2023-01-06T04:03:24;7.70;1.00
14924;DHT22;7554;43.600;1.480;2023-01-06T04:05:53;7.60;1.00
14924;DHT22;7554;43.600;1.480;2023-01-06T04:08:21;7.70;1.00
14924;DHT22;7554;43.600;1.480;2023-01-06T04:10:48;7.70;1.00
14924;DHT22;7554;43.600;1.480;2023-01-06T04:13:15;7.70;1.00
14924;DHT22;7554;43.600;1.480;2023-01-06T04:15:42;7.70;1.00
14924;DHT22;7554;43.600;1.480;2023-01-06T04:18:09;7.70;1.00
14924;DHT22;7554;43.600;1.480;2023-01-06T04:20:37;7.70;1.00
14924;DHT22;7554;43.600;1.480;2023-01-06T04:23:05;7.70;1.00
14924;DHT22;7554;43.600;1.480;2023-01-06T04:25:33;7.70;1.00
14924;DHT22;7554;43.600;1.480;2023-01-06T04:28:00;7.70;1.00
14924;DHT22;7554;43.600;1.480;2023-01-06T04:30:28;7.80;1.00
14924;DHT22;7554;43.600;1.480;2023-01-06T04:32:55;7.70;1.00
14924;DHT22;7554;43.600;1.480;2023-01-06T04:35:23;7.60;1.00
14924;DHT22;7554;43.600;1.480;2023-01-06T04:37:50;7.70;1.00
14924;DHT22;7554;43.600;1.480;2023-01-06T04:40:19;7.70;1.00
14924;DHT22;7554;43.600;1.480;2023-01-06T04:42:46;7.60;1.00
14924;DHT22;7554;43.600;1.480;2023-01-06T04:45:33;7.70;1.00
14924;DHT22;7554;43.600;1.480;2023-01-06T04:48:00;7.60;1.00
14924;DHT22;7554;43.600;1.480;2023-01-06T04:50:27;7.60;1.00
14924;DHT22;7554;43.600;1.480;2023-01-06T04:52:55;7.60;1.00
14924;DHT22;7554;43.600;1.480;2023-01-06T04:55:24;7.60;1.00
14924;DHT22;7554;43.600;1.480;2023-01-06T04:57:52;7.60;1.00
14924;DHT22;7554;43.600;1.480;2023-01-06T05:00:20;7.70;1.00
14924;DHT22;7554;43.600;1.480;2023-01-06T05:02:47;7.70;1.00
14924;DHT22;7554;43.600;1.480;2023-01-06T05:05:15;7.70;1.00
14924;DHT22;7554;43.600;1.480;2023-01-06T05:07:43;7.70;1.00
14924;DHT22;7554;43.600;1.480;2023-01-06T05:10:11;7.70;1.00
14924;DHT22;7554;43.600;1.480;2023-01-06T05:12:40;7.70;1.00
14924;DHT22;7554;43.600;1.480;2023-01-06T05:15:09;7.70;1.00
14924;DHT22;7554;43.600;1.480;2023-01-06T05:17:37;7.60;1.00
14924;DHT22;7554;43.600;1.480;2023-01-06T05:20:05;7.60;1.00
14924;DHT22;7554;43.600;1.480;2023-01-06T05:22:33;7.70;1.00
14924;DHT22;7554;43.600;1.480;2023-01-06T05:25:00;7.70;1.00
14924;DHT22;7554;43.600;1.480;2023-01-06T05:27:28;7.70;1.00
14924;DHT22;7554;43.600;1.480;2023-01-06T05:29:57;7.70;1.00
14924;DHT22;7554;43.600;1.480;2023-01-06T05:32:24;7.70;1.00
14924;DHT22;7554;43.600;1.480;2023-01-06T05:34:52;7.80;1.00
14924;DHT22;7554;43.600;1.480;2023-01-06T05:37:19;7.80;1.00
14924;DHT22;7554;43.600;1.480;2023-01-06T05:39:46;7.80;1.00
14924;DHT22;7554;43.600;1.480;2023-01-06T05:42:15;7.80;1.00
14924;DHT22;7554;43.600;1.480;2023-01-06T05:44:43;7.70;1.00
14924;DHT22;7554;43.600;1.480;2023-01-06T05:47:12;7.70;1.00
14924;DHT22;7554;43.600;1.480;2023-01-06T05:49:39;7.70;1.00
14924;DHT22;7554;43.600;1.480;2023-01-06T05:52:06;7.70;1.00
14924;DHT22;7554;43.600;1.480;2023-01-06T05:54:34;7.70;1.00
14924;DHT22;7554;43.600;1.480;2023-01-06T05:57:01;7.80;1.00
14924;DHT22;7554;43.600;1.480;2023-01-06T05:59:29;7.90;1.00
14924;DHT22;7554;43.600;1.480;2023-01-06T06:01:56;7.90;1.00
14924;DHT22;7554;43.600;1.480;2023-01-06T06:04:25;7.90;1.00
14924;DHT22;7554;43.600;1.480;2023-01-06T06:06:53;7.80;1.00
14924;DHT22;7554;43.600;1.480;2023-01-06T06:09:20;7.80;1.00
14924;DHT22;7554;43.600;1.480;2023-01-06T06:11:48;7.80;1.00
14924;DHT22;7554;43.600;1.480;2023-01-06T06:14:16;7.80;1.00
14924;DHT22;7554;43.600;1.480;2023-01-06T06:16:44;7.80;1.00
14924;DHT22;7554;43.600;1.480;2023-01-06T06:19:12;7.90;1.00
14924;DHT22;7554;43.600;1.480;2023-01-06T06:21:41;7.80;1.00
14924;DHT22;7554;43.600;1.480;2023-01-06T06:24:08;7.80;1.00
14924;DHT22;7554;43.600;1.480;2023-01-06T06:26:36;7.90;1.00
14924;DHT22;7554;43.600;1.480;2023-01-06T06:29:04;7.80;1.00
14924;DHT22;7554;43.600;1.480;2023-01-06T06:31:32;7.90;1.00
14924;DHT22;7554;43.600;1.480;2023-01-06T06:34:00;7.90;1.00
14924;DHT22;7554;43.600;1.480;2023-01-06T06:36:28;7.90;1.00
14924;DHT22;7554;43.600;1.480;2023-01-06T06:38:57;8.00;1.00
14924;DHT22;7554;43.600;1.480;2023-01-06T06:41:26;8.00;1.00
14924;DHT22;7554;43.600;1.480;2023-01-06T06:43:53;8.00;1.00
14924;DHT22;7554;43.600;1.480;2023-01-06T06:46:21;7.90;1.00
14924;DHT22;7554;43.600;1.480;2023-01-06T06:48:49;8.00;1.00
14924;DHT22;7554;43.600;1.480;2023-01-06T06:51:18;8.00;1.00
14924;DHT22;7554;43.600;1.480;2023-01-06T06:53:46;8.00;1.00
14924;DHT22;7554;43.600;1.480;2023-01-06T06:56:16;8.00;1.00
14924;DHT22;7554;43.600;1.480;2023-01-06T06:58:44;7.90;1.00
14924;DHT22;7554;43.600;1.480;2023-01-06T07:01:13;8.00;1.00
14924;DHT22;7554;43.600;1.480;2023-01-06T07:03:40;8.00;1.00
14924;DHT22;7554;43.600;1.480;2023-01-06T07:06:10;8.00;1.00
14924;DHT22;7554;43.600;1.480;2023-01-06T07:08:41;8.00;1.00
14924;DHT22;7554;43.600;1.480;2023-01-06T07:11:10;8.10;1.00
14924;DHT22;7554;43.600;1.480;2023-01-06T07:13:38;8.10;1.00
14924;DHT22;7554;43.600;1.480;2023-01-06T07:16:07;8.10;1.00
14924;DHT22;7554;43.600;1.480;2023-01-06T07:18:35;8.10;1.00
14924;DHT22;7554;43.600;1.480;2023-01-06T07:21:02;8.00;1.00
14924;DHT22;7554;43.600;1.480;2023-01-06T07:23:31;8.10;1.00
14924;DHT22;7554;43.600;1.480;2023-01-06T07:26:00;8.10;1.00
14924;DHT22;7554;43.600;1.480;2023-01-06T07:28:30;8.10;1.00
14924;DHT22;7554;43.600;1.480;2023-01-06T07:30:59;8.10;1.00
14924;DHT22;7554;43.600;1.480;2023-01-06T07:33:27;7.90;1.00
14924;DHT22;7554;43.600;1.480;2023-01-06T07:35:55;7.90;1.00
14924;DHT22;7554;43.600;1.480;2023-01-06T07:38:23;7.90;1.00
14924;DHT22;7554;43.600;1.480;2023-01-06T07:40:51;8.00;1.00
14924;DHT22;7554;43.600;1.480;2023-01-06T07:43:39;8.10;1.00
14924;DHT22;7554;43.600;1.480;2023-01-06T07:46:25;8.10;1.00
14924;DHT22;7554;43.600;1.480;2023-01-06T07:48:52;8.20;1.00
14924;DHT22;7554;43.600;1.480;2023-01-06T07:51:19;8.20;1.00
14924;DHT22;7554;43.600;1.480;2023-01-06T07:53:47;8.20;1.00
14924;DHT22;7554;43.600;1.480;2023-01-06T07:56:14;8.20;1.00
14924;DHT22;7554;43.600;1.480;2023-01-06T07:58:41;8.20;1.00
14924;DHT22;7554;43.600;1.480;2023-01-06T08:01:10;8.30;1.00
14924;DHT22;7554;43.600;1.480;2023-01-06T08:03:39;8.30;1.00
14924;DHT22;7554;43.600;1.480;2023-01-06T08:06:07;8.10;1.00
14924;DHT22;7554;43.600;1.480;2023-01-06T08:08:36;8.20;1.00
14924;DHT22;7554;43.600;1.480;2023-01-06T08:11:04;8.30;1.00
14924;DHT22;7554;43.600;1.480;2023-01-06T08:13:32;8.30;1.00
14924;DHT22;7554;43.600;1.480;2023-01-06T08:16:03;8.30;1.00
14924;DHT22;7554;43.600;1.480;2023-01-06T08:18:30;8.30;1.00
14924;DHT22;7554;43.600;1.480;2023-01-06T08:21:03;8.40;1.00
14924;DHT22;7554;43.600;1.480;2023-01-06T08:23:32;8.40;1.00
14924;DHT22;7554;43.600;1.480;2023-01-06T08:26:01;8.40;1.00
14924;DHT22;7554;43.600;1.480;2023-01-06T08:28:29;8.40;1.00
14924;DHT22;7554;43.600;1.480;2023-01-06T08:30:56;8.50;1.00
14924;DHT22;7554;43.600;1.480;2023-01-06T08:33:24;8.50;1.00
14924;DHT22;7554;43.600;1.480;2023-01-06T08:35:55;8.50;1.00
14924;DHT22;7554;43.600;1.480;2023-01-06T08:38:25;8.50;1.00
14924;DHT22;7554;43.600;1.480;2023-01-06T08:40:53;8.50;1.00
14924;DHT22;7554;43.600;1.480;2023-01-06T08:43:20;8.50;1.00
14924;DHT22;7554;43.600;1.480;2023-01-06T08:45:48;8.60;1.00
14924;DHT22;7554;43.600;1.480;2023-01-06T08:48:16;8.40;1.00
14924;DHT22;7554;43.600;1.480;2023-01-06T08:50:44;8.40;1.00
14924;DHT22;7554;43.600;1.480;2023-01-06T08:53:12;8.50;1.00
14924;DHT22;7554;43.600;1.480;2023-01-06T08:55:41;8.60;1.00
14924;DHT22;7554;43.600;1.480;2023-01-06T08:58:09;8.70;1.00
14924;DHT22;7554;43.600;1.480;2023-01-06T09:00:39;8.70;1.00
14924;DHT22;7554;43.600;1.480;2023-01-06T09:03:07;8.60;1.00
14924;DHT22;7554;43.600;1.480;2023-01-06T09:05:34;8.50;1.00
14924;DHT22;7554;43.600;1.480;2023-01-06T09:08:02;8.50;1.00
14924;DHT22;7554;43.600;1.480;2023-01-06T09:10:29;8.70;1.00
14924;DHT22;7554;43.600;1.480;2023-01-06T09:12:58;8.70;1.00
14924;DHT22;7554;43.600;1.480;2023-01-06T09:15:28;8.80;1.00
14924;DHT22;7554;43.600;1.480;2023-01-06T09:17:56;8.90;1.00
14924;DHT22;7554;43.600;1.480;2023-01-06T09:20:27;8.90;1.00
14924;DHT22;7554;43.600;1.480;2023-01-06T09:22:54;8.90;1.00
14924;DHT22;7554;43.600;1.480;2023-01-06T09:25:22;8.90;1.00
14924;DHT22;7554;43.600;1.480;2023-01-06T09:30:53;9.00;1.00
14924;DHT22;7554;43.600;1.480;2023-01-06T09:33:20;9.10;1.00
14924;DHT22;7554;43.600;1.480;2023-01-06T09:35:48;9.10;1.00
14924;DHT22;7554;43.600;1.480;2023-01-06T09:38:16;9.20;1.00
14924;DHT22;7554;43.600;1.480;2023-01-06T09:40:56;9.10;1.00
14924;DHT22;7554;43.600;1.480;2023-01-06T09:43:36;9.20;1.00
14924;DHT22;7554;43.600;1.480;2023-01-06T09:46:05;9.30;1.00
14924;DHT22;7554;43.600;1.480;2023-01-06T09:48:38;9.30;1.00
14924;DHT22;7554;43.600;1.480;2023-01-06T09:51:31;9.40;1.00
14924;DHT22;7554;43.600;1.480;2023-01-06T09:54:16;9.40;1.00
14924;DHT22;7554;43.600;1.480;2023-01-06T09:56:53;9.40;1.00
14924;DHT22;7554;43.600;1.480;2023-01-06T09:59:29;9.50;1.00
14924;DHT22;7554;43.600;1.480;2023-01-06T10:01:59;9.50;1.00
14924;DHT22;7554;43.600;1.480;2023-01-06T10:04:29;9.60;1.00
14924;DHT22;7554;43.600;1.480;2023-01-06T10:07:11;9.60;1.00
14924;DHT22;7554;43.600;1.480;2023-01-06T10:09:45;9.70;1.00
14924;DHT22;7554;43.600;1.480;2023-01-06T10:12:30;9.80;1.00
14924;DHT22;7554;43.600;1.480;2023-01-06T10:15:19;9.90;1.00
14924;DHT22;7554;43.600;1.480;2023-01-06T10:18:08;9.90;1.00
14924;DHT22;7554;43.600;1.480;2023-01-06T10:20:47;10.00;1.00
14924;DHT22;7554;43.600;1.480;2023-01-06T10:23:39;10.10;1.00
14924;DHT22;7554;43.600;1.480;2023-01-06T10:26:12;10.20;1.00
14924;DHT22;7554;43.600;1.480;2023-01-06T10:28:42;10.30;1.00
14924;DHT22;7554;43.600;1.480;2023-01-06T10:31:15;10.50;1.00
14924;DHT22;7554;43.600;1.480;2023-01-06T10:33:47;10.50;1.00
14924;DHT22;7554;43.600;1.480;2023-01-06T10:36:21;10.60;1.00
14924;DHT22;7554;43.600;1.480;2023-01-06T10:38:54;10.70;1.00
14924;DHT22;7554;43.600;1.480;2023-01-06T10:41:39;10.70;1.00
14924;DHT22;7554;43.600;1.480;2023-01-06T10:44:12;10.80;1.00
14924;DHT22;7554;43.600;1.480;2023-01-06T10:46:44;10.80;1.00
14924;DHT22;7554;43.600;1.480;2023-01-06T10:49:18;10.80;1.00
14924;DHT22;7554;43.600;1.480;2023-01-06T10:51:50;11.00;1.00
14924;DHT22;7554;43.600;1.480;2023-01-06T10:54:23;11.10;1.00
14924;DHT22;7554;43.600;1.480;2023-01-06T10:56:57;11.10;1.00
14924;DHT22;7554;43.600;1.480;2023-01-06T10:59:26;11.20;1.00
14924;DHT22;7554;43.600;1.480;2023-01-06T11:01:56;11.20;1.00
14924;DHT22;7554;43.600;1.480;2023-01-06T11:04:25;11.10;1.00
14924;DHT22;7554;43.600;1.480;2023-01-06T11:06:55;11.10;1.00
14924;DHT22;7554;43.600;1.480;2023-01-06T11:09:32;11.10;1.00
14924;DHT22;7554;43.600;1.480;2023-01-06T11:12:02;11.10;1.00
14924;DHT22;7554;43.600;1.480;2023-01-06T11:14:35;11.20;1.00
14924;DHT22;7554;43.600;1.480;2023-01-06T11:17:06;11.20;1.00
14924;DHT22;7554;43.600;1.480;2023-01-06T11:19:37;11.30;1.00
14924;DHT22;7554;43.600;1.480;2023-01-06T11:22:09;11.20;1.00
14924;DHT22;7554;43.600;1.480;2023-01-06T11:24:53;11.30;1.00
14924;DHT22;7554;43.600;1.480;2023-01-06T11:27:21;11.30;1.00
14924;DHT22;7554;43.600;1.480;2023-01-06T11:29:49;11.30;1.00
14924;DHT22;7554;43.600;1.480;2023-01-06T11:32:20;11.40;1.00
14924;DHT22;7554;43.600;1.480;2023-01-06T11:34:52;11.40;1.00
14924;DHT22;7554;43.600;1.480;2023-01-06T11:37:30;11.50;1.00
14924;DHT22;7554;43.600;1.480;2023-01-06T11:39:57;11.50;1.00
14924;DHT22;7554;43.600;1.480;2023-01-06T11:42:29;11.50;1.00
14924;DHT22;7554;43.600;1.480;2023-01-06T11:44:57;11.50;1.00
14924;DHT22;7554;43.600;1.480;2023-01-06T11:47:26;11.40;1.00
14924;DHT22;7554;43.600;1.480;2023-01-06T11:49:55;11.40;1.00
14924;DHT22;7554;43.600;1.480;2023-01-06T11:52:25;11.40;1.00
14924;DHT22;7554;43.600;1.480;2023-01-06T11:54:58;11.50;1.00
14924;DHT22;7554;43.600;1.480;2023-01-06T11:57:34;11.50;1.00
14924;DHT22;7554;43.600;1.480;2023-01-06T12:02:59;11.70;1.00
14924;DHT22;7554;43.600;1.480;2023-01-06T12:05:33;11.70;1.00
14924;DHT22;7554;43.600;1.480;2023-01-06T12:08:08;11.70;1.00
14924;DHT22;7554;43.600;1.480;2023-01-06T12:10:39;11.80;1.00
14924;DHT22;7554;43.600;1.480;2023-01-06T12:13:11;11.80;1.00
14924;DHT22;7554;43.600;1.480;2023-01-06T12:15:40;11.70;1.00
14924;DHT22;7554;43.600;1.480;2023-01-06T12:18:13;11.70;1.00
14924;DHT22;7554;43.600;1.480;2023-01-06T12:20:43;11.80;1.00
14924;DHT22;7554;43.600;1.480;2023-01-06T12:23:17;11.80;1.00
14924;DHT22;7554;43.600;1.480;2023-01-06T12:25:48;11.90;1.00
14924;DHT22;7554;43.600;1.480;2023-01-06T12:28:18;12.00;1.00
14924;DHT22;7554;43.600;1.480;2023-01-06T12:30:56;11.90;1.00
14924;DHT22;7554;43.600;1.480;2023-01-06T12:33:31;11.90;1.00
14924;DHT22;7554;43.600;1.480;2023-01-06T12:36:02;11.90;1.00
14924;DHT22;7554;43.600;1.480;2023-01-06T12:38:41;11.90;1.00
14924;DHT22;7554;43.600;1.480;2023-01-06T12:41:13;11.70;1.00
14924;DHT22;7554;43.600;1.480;2023-01-06T12:43:48;11.60;1.00
14924;DHT22;7554;43.600;1.480;2023-01-06T12:46:25;11.80;1.00
14924;DHT22;7554;43.600;1.480;2023-01-06T12:49:00;11.80;1.00
14924;DHT22;7554;43.600;1.480;2023-01-06T12:51:34;11.70;1.00
14924;DHT22;7554;43.600;1.480;2023-01-06T12:54:16;11.70;1.00
14924;DHT22;7554;43.600;1.480;2023-01-06T12:56:58;11.70;1.00
14924;DHT22;7554;43.600;1.480;2023-01-06T12:59:40;11.70;1.00
14924;DHT22;7554;43.600;1.480;2023-01-06T13:02:22;11.80;1.00
14924;DHT22;7554;43.600;1.480;2023-01-06T13:05:17;11.90;1.00
14924;DHT22;7554;43.600;1.480;2023-01-06T13:07:51;12.00;1.00
14924;DHT22;7554;43.600;1.480;2023-01-06T13:10:30;12.00;1.00
14924;DHT22;7554;43.600;1.480;2023-01-06T13:13:23;11.90;1.00
14924;DHT22;7554;43.600;1.480;2023-01-06T13:15:53;11.80;1.00
14924;DHT22;7554;43.600;1.480;2023-01-06T13:18:26;11.80;1.00
14924;DHT22;7554;43.600;1.480;2023-01-06T13:21:03;12.00;1.00
14924;DHT22;7554;43.600;1.480;2023-01-06T13:23:52;12.00;1.00
14924;DHT22;7554;43.600;1.480;2023-01-06T13:26:45;11.90;1.00
14924;DHT22;7554;43.600;1.480;2023-01-06T13:29:29;12.10;1.00
14924;DHT22;7554;43.600;1.480;2023-01-06T13:46:04;12.10;1.00
14924;DHT22;7554;43.600;1.480;2023-01-06T13:49:03;11.80;1.00
14924;DHT22;7554;43.600;1.480;2023-01-06T13:55:05;11.90;1.00
14924;DHT22;7554;43.600;1.480;2023-01-06T13:57:44;12.10;1.00
14924;DHT22;7554;43.600;1.480;2023-01-06T14:03:41;12.10;1.00
14924;DHT22;7554;43.600;1.480;2023-01-06T14:16:55;12.10;1.00
14924;DHT22;7554;43.600;1.480;2023-01-06T14:19:30;12.10;1.00
14924;DHT22;7554;43.600;1.480;2023-01-06T14:22:20;12.00;1.00
14924;DHT22;7554;43.600;1.480;2023-01-06T14:25:21;12.00;1.00
14924;DHT22;7554;43.600;1.480;2023-01-06T14:28:23;11.90;1.00
14924;DHT22;7554;43.600;1.480;2023-01-06T14:34:15;11.90;1.00
14924;DHT22;7554;43.600;1.480;2023-01-06T14:36:50;12.00;1.00
14924;DHT22;7554;43.600;1.480;2023-01-06T14:39:21;12.00;1.00
14924;DHT22;7554;43.600;1.480;2023-01-06T14:41:58;12.10;1.00
14924;DHT22;7554;43.600;1.480;2023-01-06T14:44:45;12.00;1.00
14924;DHT22;7554;43.600;1.480;2023-01-06T14:47:29;11.90;1.00
14924;DHT22;7554;43.600;1.480;2023-01-06T14:50:04;12.00;1.00
14924;DHT22;7554;43.600;1.480;2023-01-06T14:52:46;12.00;1.00
14924;DHT22;7554;43.600;1.480;2023-01-06T14:55:17;11.80;1.00
14924;DHT22;7554;43.600;1.480;2023-01-06T14:57:46;11.80;1.00
14924;DHT22;7554;43.600;1.480;2023-01-06T15:00:18;11.90;1.00
14924;DHT22;7554;43.600;1.480;2023-01-06T15:02:51;11.90;1.00
14924;DHT22;7554;43.600;1.480;2023-01-06T15:05:21;11.90;1.00
14924;DHT22;7554;43.600;1.480;2023-01-06T15:07:58;11.80;1.00
14924;DHT22;7554;43.600;1.480;2023-01-06T15:10:27;11.80;1.00
14924;DHT22;7554;43.600;1.480;2023-01-06T15:13:00;11.70;1.00
14924;DHT22;7554;43.600;1.480;2023-01-06T15:15:30;11.60;1.00
14924;DHT22;7554;43.600;1.480;2023-01-06T15:18:01;11.60;1.00
14924;DHT22;7554;43.600;1.480;2023-01-06T15:20:32;11.50;1.00
14924;DHT22;7554;43.600;1.480;2023-01-06T15:22:59;11.50;1.00
14924;DHT22;7554;43.600;1.480;2023-01-06T15:25:28;11.60;1.00
14924;DHT22;7554;43.600;1.480;2023-01-06T15:27:58;11.60;1.00
14924;DHT22;7554;43.600;1.480;2023-01-06T15:30:27;11.50;1.00
14924;DHT22;7554;43.600;1.480;2023-01-06T15:32:59;11.50;1.00
14924;DHT22;7554;43.600;1.480;2023-01-06T15:35:29;11.40;1.00
14924;DHT22;7554;43.600;1.480;2023-01-06T15:38:02;11.40;1.00
14924;DHT22;7554;43.600;1.480;2023-01-06T15:40:30;11.30;1.00
14924;DHT22;7554;43.600;1.480;2023-01-06T15:42:58;11.30;1.00
14924;DHT22;7554;43.600;1.480;2023-01-06T15:45:31;11.30;1.00
14924;DHT22;7554;43.600;1.480;2023-01-06T15:48:01;11.30;1.00
14924;DHT22;7554;43.600;1.480;2023-01-06T15:50:34;11.20;1.00
14924;DHT22;7554;43.600;1.480;2023-01-06T15:53:04;11.20;1.00
14924;DHT22;7554;43.600;1.480;2023-01-06T15:55:37;11.20;1.00
14924;DHT22;7554;43.600;1.480;2023-01-06T16:01:11;11.30;1.00
14924;DHT22;7554;43.600;1.480;2023-01-06T16:03:45;11.30;1.00
14924;DHT22;7554;43.600;1.480;2023-01-06T16:06:24;11.20;1.00
14924;DHT22;7554;43.600;1.480;2023-01-06T16:08:52;11.20;1.00
14924;DHT22;7554;43.600;1.480;2023-01-06T16:11:26;11.10;1.00
14924;DHT22;7554;43.600;1.480;2023-01-06T16:14:27;11.00;1.00
14924;DHT22;7554;43.600;1.480;2023-01-06T16:17:06;10.90;1.00
14924;DHT22;7554;43.600;1.480;2023-01-06T16:19:36;11.00;1.00
14924;DHT22;7554;43.600;1.480;2023-01-06T16:22:07;10.90;1.00
14924;DHT22;7554;43.600;1.480;2023-01-06T16:24:48;10.90;1.00
14924;DHT22;7554;43.600;1.480;2023-01-06T16:27:21;10.90;1.00
14924;DHT22;7554;43.600;1.480;2023-01-06T16:30:21;10.90;1.00
14924;DHT22;7554;43.600;1.480;2023-01-06T16:32:51;11.00;1.00
14924;DHT22;7554;43.600;1.480;2023-01-06T16:35:21;10.90;1.00
14924;DHT22;7554;43.600;1.480;2023-01-06T16:37:49;10.80;1.00
14924;DHT22;7554;43.600;1.480;2023-01-06T16:40:18;10.80;1.00
14924;DHT22;7554;43.600;1.480;2023-01-06T16:42:47;10.80;1.00
14924;DHT22;7554;43.600;1.480;2023-01-06T16:45:25;10.90;1.00
14924;DHT22;7554;43.600;1.480;2023-01-06T16:47:55;10.80;1.00
14924;DHT22;7554;43.600;1.480;2023-01-06T16:50:24;10.70;1.00
14924;DHT22;7554;43.600;1.480;2023-01-06T16:53:01;10.60;1.00
14924;DHT22;7554;43.600;1.480;2023-01-06T16:55:29;10.60;1.00
14924;DHT22;7554;43.600;1.480;2023-01-06T16:57:58;10.50;1.00
14924;DHT22;7554;43.600;1.480;2023-01-06T17:00:26;10.50;1.00
14924;DHT22;7554;43.600;1.480;2023-01-06T17:02:55;10.40;1.00
14924;DHT22;7554;43.600;1.480;2023-01-06T17:05:25;10.20;1.00
14924;DHT22;7554;43.600;1.480;2023-01-06T17:07:59;10.10;1.00
14924;DHT22;7554;43.600;1.480;2023-01-06T17:10:27;10.00;1.00
14924;DHT22;7554;43.600;1.480;2023-01-06T17:12:56;10.00;1.00
14924;DHT22;7554;43.600;1.480;2023-01-06T17:15:42;9.90;1.00
14924;DHT22;7554;43.600;1.480;2023-01-06T17:18:19;9.70;1.00
14924;DHT22;7554;43.600;1.480;2023-01-06T17:20:47;9.70;1.00
14924;DHT22;7554;43.600;1.480;2023-01-06T17:23:15;9.70;1.00
14924;DHT22;7554;43.600;1.480;2023-01-06T17:25:43;9.70;1.00
14924;DHT22;7554;43.600;1.480;2023-01-06T17:28:21;9.60;1.00
14924;DHT22;7554;43.600;1.480;2023-01-06T17:30:49;9.60;1.00
14924;DHT22;7554;43.600;1.480;2023-01-06T17:33:18;9.60;1.00
14924;DHT22;7554;43.600;1.480;2023-01-06T17:35:47;9.50;1.00
14924;DHT22;7554;43.600;1.480;2023-01-06T17:38:21;9.60;1.00
14924;DHT22;7554;43.600;1.480;2023-01-06T17:40:50;9.60;1.00